createdAt,value
2019-02-14T00:02:14.210Z,2.90
2019-02-14T00:04:41.056Z,1.22
2019-02-14T00:07:08.207Z,3.58
2019-02-14T00:09:35.360Z,2.75
2019-02-14T00:12:02.504Z,2.05
2019-02-14T00:14:29.660Z,2.27
2019-02-14T00:16:56.806Z,1.90
2019-02-14T00:19:23.974Z,2.55
2019-02-14T00:21:51.109Z,1.67
2019-02-14T00:24:18.258Z,2.67
2019-02-14T00:26:45.407Z,2.05
2019-02-14T00:29:12.558Z,2.62
2019-02-14T00:31:39.714Z,1.85
2019-02-14T00:34:06.860Z,1.98
2019-02-14T00:36:34.009Z,1.60
2019-02-14T00:39:01.160Z,1.47
2019-02-14T00:41:28.311Z,1.20
2019-02-14T00:43:55.462Z,2.85
2019-02-14T00:46:22.612Z,2.10
2019-02-14T00:48:49.762Z,1.30
2019-02-14T00:51:16.913Z,1.90
2019-02-14T00:53:44.064Z,1.12
2019-02-14T00:56:11.214Z,1.62
2019-02-14T00:58:38.059Z,1.00
2019-02-14T01:01:04.902Z,1.30
2019-02-14T01:03:32.054Z,1.57
2019-02-14T01:05:59.203Z,1.70
2019-02-14T01:08:26.355Z,1.00
2019-02-14T01:10:53.200Z,2.27
2019-02-14T01:13:20.346Z,1.25
2019-02-14T01:15:48.103Z,1.77
2019-02-14T01:18:15.261Z,1.42
2019-02-14T01:20:42.413Z,1.65
2019-02-14T01:23:09.563Z,1.42
2019-02-14T01:25:36.715Z,1.30
2019-02-14T01:28:03.561Z,2.20
2019-02-14T01:30:30.707Z,1.60
2019-02-14T01:32:57.858Z,1.10
2019-02-14T01:35:25.010Z,1.35
2019-02-14T01:37:52.221Z,1.50
2019-02-14T01:40:19.343Z,2.25
2019-02-14T01:42:46.460Z,1.35
2019-02-14T01:45:13.611Z,2.08
2019-02-14T01:47:40.763Z,2.20
2019-02-14T01:50:09.141Z,1.40
2019-02-14T01:52:36.291Z,1.20
2019-02-14T01:55:04.060Z,2.65
2019-02-14T01:57:31.206Z,1.35
2019-02-14T01:59:58.361Z,1.05
2019-02-14T02:02:25.507Z,1.05
2019-02-14T02:04:52.660Z,1.72
2019-02-14T02:07:19.809Z,2.05
2019-02-14T02:09:46.960Z,1.82
2019-02-14T02:12:14.417Z,1.10
2019-02-14T02:14:41.570Z,1.62
2019-02-14T02:17:08.720Z,1.47
2019-02-14T02:19:35.870Z,1.27
2019-02-14T02:22:02.978Z,1.15
2019-02-14T02:24:30.169Z,1.60
2019-02-14T02:26:57.320Z,2.25
2019-02-14T02:29:24.473Z,2.30
2019-02-14T02:31:51.621Z,2.35
2019-02-14T02:34:18.773Z,1.55
2019-02-14T02:36:45.923Z,1.87
2019-02-14T02:39:13.381Z,1.65
2019-02-14T02:41:40.531Z,3.08
2019-02-14T02:44:09.087Z,2.62
2019-02-14T02:46:36.368Z,1.87
2019-02-14T02:49:03.213Z,2.40
2019-02-14T02:51:30.363Z,1.20
2019-02-14T02:53:57.208Z,1.87
2019-02-14T02:56:24.357Z,1.60
2019-02-14T02:58:51.202Z,1.77
2019-02-14T03:01:18.046Z,2.08
2019-02-14T03:03:45.193Z,2.00
2019-02-14T03:06:12.037Z,2.02
2019-02-14T03:08:39.191Z,1.65
2019-02-14T03:11:06.337Z,2.27
2019-02-14T03:13:33.489Z,2.50
2019-02-14T03:16:02.176Z,1.47
2019-02-14T03:18:29.332Z,2.30
2019-02-14T03:20:56.311Z,2.33
2019-02-14T03:23:23.626Z,2.42
2019-02-14T03:25:50.778Z,2.30
2019-02-14T03:28:18.234Z,2.10
2019-02-14T03:30:45.387Z,1.70
2019-02-14T03:33:12.536Z,2.10
2019-02-14T03:35:39.686Z,1.10
2019-02-14T03:38:06.838Z,1.25
2019-02-14T03:40:33.986Z,1.35
2019-02-14T03:43:01.138Z,2.87
2019-02-14T03:45:28.289Z,1.70
2019-02-14T03:47:55.438Z,1.60
2019-02-14T03:50:22.589Z,1.37
2019-02-14T03:52:49.739Z,2.30
2019-02-14T03:55:16.583Z,1.50
2019-02-14T03:57:43.463Z,2.85
2019-02-14T04:00:14.910Z,1.72
2019-02-14T04:02:41.767Z,1.77
2019-02-14T04:05:08.803Z,0.82
2019-02-14T04:07:35.715Z,1.87
2019-02-14T04:10:04.119Z,1.85
2019-02-14T04:12:31.246Z,0.90
2019-02-14T04:14:58.395Z,2.10
2019-02-14T04:17:25.546Z,1.30
2019-02-14T04:19:52.412Z,1.72
2019-02-14T04:22:19.233Z,2.15
2019-02-14T04:24:46.076Z,1.40
2019-02-14T04:27:12.919Z,1.15
2019-02-14T04:29:39.763Z,2.60
2019-02-14T04:32:06.606Z,1.35
2019-02-14T04:34:33.449Z,0.93
2019-02-14T04:37:00.293Z,1.92
2019-02-14T04:39:27.137Z,2.95
2019-02-14T04:41:53.980Z,3.08
2019-02-14T04:44:21.130Z,1.95
2019-02-14T04:46:48.280Z,1.55
2019-02-14T04:49:15.430Z,1.70
2019-02-14T04:51:42.581Z,1.77
2019-02-14T04:54:09.732Z,1.25
2019-02-14T04:56:36.884Z,2.20
2019-02-14T04:59:04.033Z,2.00
2019-02-14T05:01:31.184Z,2.42
2019-02-14T05:03:58.337Z,1.70
2019-02-14T05:06:25.492Z,2.22
2019-02-14T05:08:52.635Z,2.47
2019-02-14T05:11:19.787Z,2.50
2019-02-14T05:13:46.937Z,2.70
2019-02-14T05:16:14.087Z,1.55
2019-02-14T05:18:41.238Z,1.80
2019-02-14T05:21:08.388Z,3.58
2019-02-14T05:23:35.540Z,1.85
2019-02-14T05:26:02.693Z,1.57
2019-02-14T05:28:29.841Z,4.08
2019-02-14T05:30:56.991Z,4.62
2019-02-14T05:33:23.970Z,1.55
2019-02-14T05:35:51.291Z,2.22
2019-02-14T05:38:18.278Z,2.10
2019-02-14T05:40:45.592Z,2.55
2019-02-14T05:43:12.742Z,2.42
2019-02-14T05:45:39.894Z,3.33
2019-02-14T05:48:07.047Z,3.17
2019-02-14T05:50:34.195Z,3.80
2019-02-14T05:53:01.345Z,2.65
2019-02-14T05:55:28.810Z,2.15
2019-02-14T05:57:55.960Z,2.83
2019-02-14T06:00:23.105Z,2.45
2019-02-14T06:02:50.082Z,2.27
2019-02-14T06:05:17.100Z,2.60
2019-02-14T06:07:44.252Z,2.98
2019-02-14T06:10:11.706Z,2.52
2019-02-14T06:12:38.857Z,2.67
2019-02-14T06:15:07.170Z,2.30
2019-02-14T06:17:34.388Z,2.02
2019-02-14T06:20:02.460Z,4.08
2019-02-14T06:22:29.608Z,1.12
2019-02-14T06:24:56.690Z,3.83
2019-02-14T06:27:23.911Z,2.17
2019-02-14T06:29:51.061Z,3.47
2019-02-14T06:32:18.211Z,2.08
2019-02-14T06:34:45.362Z,3.75
2019-02-14T06:37:12.513Z,3.17
2019-02-14T06:39:39.662Z,2.52
2019-02-14T06:42:06.813Z,4.05
2019-02-14T06:44:33.964Z,3.12
2019-02-14T06:47:01.113Z,2.27
2019-02-14T06:49:28.265Z,2.85
2019-02-14T06:51:55.414Z,2.00
2019-02-14T06:54:22.566Z,3.33
2019-02-14T06:56:49.734Z,4.08
2019-02-14T06:59:16.870Z,4.90
2019-02-14T07:01:44.018Z,4.03
2019-02-14T07:04:11.168Z,4.65
2019-02-14T07:06:38.319Z,5.20
2019-02-14T07:09:05.469Z,4.60
2019-02-14T07:11:32.619Z,4.62
2019-02-14T07:13:59.770Z,4.55
2019-02-14T07:16:27.262Z,2.62
2019-02-14T07:18:54.342Z,3.30
2019-02-14T07:21:21.855Z,3.98
2019-02-14T07:23:49.221Z,3.47
2019-02-14T07:26:16.444Z,4.30
2019-02-14T07:28:43.596Z,3.72
2019-02-14T07:31:10.752Z,5.42
2019-02-14T07:33:37.898Z,3.12
2019-02-14T07:36:04.879Z,3.95
2019-02-14T07:38:32.196Z,4.95
2019-02-14T07:40:59.654Z,6.80
2019-02-14T07:43:26.812Z,6.15
2019-02-14T07:45:53.961Z,6.28
2019-02-14T07:48:21.110Z,3.33
2019-02-14T07:50:48.266Z,5.50
2019-02-14T07:53:15.415Z,6.45
2019-02-14T07:55:42.574Z,6.20
2019-02-14T07:58:09.708Z,7.45
2019-02-14T08:00:36.858Z,6.10
2019-02-14T08:03:04.009Z,5.58
2019-02-14T08:05:31.159Z,6.67
2019-02-14T08:07:58.310Z,6.60
2019-02-14T08:10:25.460Z,5.20
2019-02-14T08:12:52.611Z,9.00
2019-02-14T08:15:19.765Z,5.47
2019-02-14T08:17:46.922Z,6.60
2019-02-14T08:20:14.987Z,6.90
2019-02-14T08:22:42.141Z,5.62
2019-02-14T08:25:10.207Z,7.15
2019-02-14T08:27:37.360Z,6.80
2019-02-14T08:30:06.352Z,5.67
2019-02-14T08:32:33.804Z,5.35
2019-02-14T08:35:00.961Z,6.10
2019-02-14T08:37:28.174Z,3.47
2019-02-14T08:39:55.272Z,4.05
2019-02-14T08:42:22.423Z,5.75
2019-02-14T08:44:49.562Z,4.97
2019-02-14T08:47:16.713Z,4.87
2019-02-14T08:49:43.864Z,3.58
2019-02-14T08:52:11.014Z,5.65
2019-02-14T08:54:38.164Z,4.10
2019-02-14T08:57:05.315Z,5.33
2019-02-14T08:59:32.466Z,4.00
2019-02-14T09:01:59.616Z,3.10
2019-02-14T09:04:26.767Z,3.77
2019-02-14T09:06:53.916Z,3.47
2019-02-14T09:09:21.067Z,3.58
2019-02-14T09:11:48.221Z,5.60
2019-02-14T09:14:15.369Z,3.58
2019-02-14T09:16:42.521Z,3.92
2019-02-14T09:19:09.733Z,5.12
2019-02-14T09:21:36.820Z,4.15
2019-02-14T09:24:03.972Z,7.67
2019-02-14T09:26:30.967Z,3.92
2019-02-14T09:28:57.964Z,5.55
2019-02-14T09:31:25.115Z,5.45
2019-02-14T09:33:53.187Z,4.55
2019-02-14T09:36:20.338Z,4.85
2019-02-14T09:38:47.491Z,4.67
2019-02-14T09:41:14.651Z,3.08
2019-02-14T09:43:41.892Z,7.17
2019-02-14T09:46:09.247Z,5.30
2019-02-14T09:48:36.398Z,2.40
2019-02-14T09:51:03.548Z,4.30
2019-02-14T09:53:30.702Z,3.90
2019-02-14T09:55:57.704Z,4.15
2019-02-14T09:58:25.014Z,4.03
2019-02-14T10:00:52.151Z,4.30
2019-02-14T10:03:19.301Z,2.85
2019-02-14T10:05:46.474Z,3.50
2019-02-14T10:08:13.462Z,5.08
2019-02-14T10:10:40.445Z,3.87
2019-02-14T10:13:07.599Z,3.22
2019-02-14T10:15:34.747Z,4.35
2019-02-14T10:18:01.901Z,4.03
2019-02-14T10:20:29.052Z,3.30
2019-02-14T10:22:56.198Z,3.20
2019-02-14T10:25:23.348Z,2.87
2019-02-14T10:27:50.811Z,3.40
2019-02-14T10:30:18.571Z,3.90
2019-02-14T10:32:45.722Z,3.23
2019-02-14T10:35:12.874Z,3.23
2019-02-14T10:37:40.030Z,5.53
2019-02-14T10:40:11.168Z,3.37
2019-02-14T10:42:38.318Z,3.60
2019-02-14T10:45:10.077Z,6.90
2019-02-14T10:47:37.232Z,4.50
2019-02-14T10:50:05.231Z,3.17
2019-02-14T10:52:32.450Z,3.47
2019-02-14T10:54:59.601Z,5.20
2019-02-14T10:57:26.751Z,3.87
2019-02-14T10:59:54.210Z,3.70
2019-02-14T11:02:21.361Z,4.13
2019-02-14T11:04:48.510Z,4.90
2019-02-14T11:07:15.661Z,4.27
2019-02-14T11:09:42.811Z,5.73
2019-02-14T11:12:09.962Z,4.70
2019-02-14T11:14:37.115Z,4.80
2019-02-14T11:17:04.572Z,3.70
2019-02-14T11:19:31.721Z,4.53
2019-02-14T11:21:58.870Z,4.50
2019-02-14T11:24:26.021Z,5.10
2019-02-14T11:26:53.103Z,4.17
2019-02-14T11:29:20.325Z,5.67
2019-02-14T11:31:47.477Z,4.73
2019-02-14T11:34:14.623Z,4.50
2019-02-14T11:36:41.774Z,3.97
2019-02-14T11:39:08.933Z,4.50
2019-02-14T11:41:36.383Z,4.03
2019-02-14T11:44:03.414Z,5.60
2019-02-14T11:46:30.377Z,4.30
2019-02-14T11:48:57.221Z,4.57
2019-02-14T11:51:24.065Z,5.97
2019-02-14T11:53:50.911Z,4.17
2019-02-14T11:56:18.058Z,4.77
2019-02-14T11:58:44.902Z,6.50
2019-02-14T12:01:11.743Z,4.97
2019-02-14T12:03:38.589Z,6.13
2019-02-14T12:06:05.433Z,6.20
2019-02-14T12:08:32.274Z,5.77
2019-02-14T12:10:59.117Z,5.40
2019-02-14T12:13:26.002Z,5.63
2019-02-14T12:15:52.805Z,4.60
2019-02-14T12:18:19.648Z,7.70
2019-02-14T12:20:48.339Z,6.00
2019-02-14T12:23:15.185Z,5.67
2019-02-14T12:25:42.951Z,4.90
2019-02-14T12:28:11.628Z,6.67
2019-02-14T12:30:38.780Z,6.80
2019-02-14T12:33:05.931Z,6.23
2019-02-14T12:35:33.081Z,6.23
2019-02-14T12:38:00.231Z,4.77
2019-02-14T12:40:27.383Z,6.67
2019-02-14T12:42:54.536Z,6.83
2019-02-14T12:45:24.245Z,5.73
2019-02-14T12:47:51.599Z,5.40
2019-02-14T12:50:18.749Z,6.10
2019-02-14T12:52:45.592Z,5.87
2019-02-14T12:55:12.440Z,5.00
2019-02-14T12:57:39.279Z,6.90
2019-02-14T13:00:12.511Z,4.97
2019-02-14T13:02:39.724Z,6.50
2019-02-14T13:05:07.491Z,7.30
2019-02-14T13:07:34.640Z,4.83
2019-02-14T13:10:01.797Z,6.20
2019-02-14T13:12:28.635Z,5.93
2019-02-14T13:14:55.478Z,5.50
2019-02-14T13:17:22.332Z,4.23
2019-02-14T13:19:49.445Z,3.67
2019-02-14T13:22:16.639Z,5.03
2019-02-14T13:24:43.773Z,5.83
2019-02-14T13:27:10.923Z,4.30
2019-02-14T13:29:40.877Z,2.93
2019-02-14T13:32:08.299Z,6.70
2019-02-14T13:34:35.448Z,5.60
2019-02-14T13:37:02.600Z,5.00
2019-02-14T13:39:31.925Z,4.30
2019-02-14T13:41:58.129Z,5.33
2019-02-14T13:44:24.979Z,4.83
2019-02-14T13:46:52.123Z,4.77
2019-02-14T13:49:18.967Z,5.63
2019-02-14T13:51:46.036Z,4.93
2019-02-14T13:54:12.963Z,7.97
2019-02-14T13:56:39.804Z,5.43
2019-02-14T13:59:06.961Z,4.70
2019-02-14T14:01:34.106Z,6.90
2019-02-14T14:04:00.949Z,4.40
2019-02-14T14:06:28.099Z,5.13
2019-02-14T14:08:55.251Z,4.53
2019-02-14T14:11:22.419Z,6.00
2019-02-14T14:13:49.553Z,5.77
2019-02-14T14:16:16.603Z,7.00
2019-02-14T14:18:43.544Z,4.17
2019-02-14T14:21:10.695Z,5.20
2019-02-14T14:23:37.514Z,6.27
2019-02-14T14:26:04.382Z,4.73
2019-02-14T14:28:31.535Z,6.40
2019-02-14T14:30:58.376Z,6.00
2019-02-14T14:33:25.527Z,7.30
2019-02-14T14:35:52.418Z,5.57
2019-02-14T14:38:19.214Z,5.20
2019-02-14T14:40:46.363Z,5.97
2019-02-14T14:43:17.818Z,8.13
2019-02-14T14:45:46.808Z,6.00
2019-02-14T14:48:19.570Z,6.67
2019-02-14T14:50:42.645Z,8.07
2019-02-14T14:53:09.499Z,6.33
2019-02-14T14:55:36.639Z,5.47
2019-02-14T14:58:03.487Z,7.40
2019-02-14T15:00:30.329Z,8.10
2019-02-14T15:02:57.483Z,6.80
2019-02-14T15:05:24.321Z,6.97
2019-02-14T15:07:51.474Z,7.43
2019-02-14T15:10:18.315Z,6.70
2019-02-14T15:12:45.465Z,4.90
2019-02-14T15:15:12.308Z,6.00
2019-02-14T15:17:39.153Z,7.43
2019-02-14T15:20:09.609Z,6.07
2019-02-14T15:22:36.525Z,6.40
2019-02-14T15:25:03.984Z,7.43
2019-02-14T15:27:30.826Z,5.63
2019-02-14T15:29:57.978Z,5.20
2019-02-14T15:32:25.132Z,4.07
2019-02-14T15:34:51.975Z,4.43
2019-02-14T15:37:18.815Z,6.47
2019-02-14T15:39:45.965Z,8.07
2019-02-14T15:42:12.856Z,6.57
2019-02-14T15:44:39.960Z,5.53
2019-02-14T15:47:06.802Z,5.67
2019-02-14T15:49:33.645Z,5.30
2019-02-14T15:52:03.213Z,5.80
2019-02-14T15:54:30.941Z,4.00
2019-02-14T15:56:57.828Z,3.97
2019-02-14T15:59:24.705Z,5.63
2019-02-14T16:01:51.856Z,4.70
2019-02-14T16:04:18.701Z,4.60
2019-02-14T16:06:45.849Z,4.13
2019-02-14T16:09:14.366Z,5.23
2019-02-14T16:11:41.689Z,4.17
2019-02-14T16:14:08.837Z,5.00
2019-02-14T16:16:35.691Z,4.50
2019-02-14T16:19:02.832Z,3.83
2019-02-14T16:21:31.530Z,4.43
2019-02-14T16:23:58.669Z,4.70
2019-02-14T16:26:25.513Z,5.57
2019-02-14T16:28:52.366Z,5.03
2019-02-14T16:31:19.479Z,3.97
2019-02-14T16:33:46.349Z,4.07
2019-02-14T16:36:13.199Z,4.13
2019-02-14T16:38:40.090Z,4.73
2019-02-14T16:41:06.891Z,4.30
2019-02-14T16:43:33.724Z,5.03
2019-02-14T16:46:00.874Z,4.03
2019-02-14T16:48:27.717Z,2.97
2019-02-14T16:50:54.870Z,3.67
2019-02-14T16:53:22.021Z,3.07
2019-02-14T16:55:49.167Z,2.70
2019-02-14T16:58:16.320Z,4.00
2019-02-14T17:00:43.162Z,3.20
2019-02-14T17:03:10.006Z,2.17
2019-02-14T17:05:37.160Z,2.77
2019-02-14T17:08:04.308Z,2.80
2019-02-14T17:10:36.918Z,3.33
2019-02-14T17:13:00.145Z,1.90
2019-02-14T17:15:27.299Z,1.80
2019-02-14T17:17:54.751Z,3.10
2019-02-14T17:20:21.902Z,2.67
2019-02-14T17:22:49.055Z,2.13
2019-02-14T17:25:17.302Z,1.40
2019-02-14T17:27:44.582Z,1.63
2019-02-14T17:30:11.436Z,2.00
2019-02-14T17:32:38.331Z,2.00
2019-02-14T17:35:06.363Z,2.87
2019-02-14T17:37:33.492Z,2.13
2019-02-14T17:40:00.644Z,1.83
2019-02-14T17:42:27.793Z,2.50
2019-02-14T17:44:54.994Z,2.53
2019-02-14T17:47:22.096Z,2.43
2019-02-14T17:49:49.244Z,3.20
2019-02-14T17:52:16.395Z,3.43
2019-02-14T17:54:43.546Z,4.50
2019-02-14T17:57:10.696Z,4.03
2019-02-14T17:59:37.848Z,5.27
2019-02-14T18:02:04.997Z,4.07
2019-02-14T18:04:32.150Z,3.93
2019-02-14T18:06:59.303Z,3.80
2019-02-14T18:09:26.448Z,3.43
2019-02-14T18:11:53.601Z,1.67
2019-02-14T18:14:21.057Z,3.83
2019-02-14T18:16:48.208Z,4.73
2019-02-14T18:19:15.366Z,3.70
2019-02-14T18:21:42.516Z,3.77
2019-02-14T18:24:09.660Z,3.23
2019-02-14T18:26:36.811Z,5.93
2019-02-14T18:29:03.964Z,3.20
2019-02-14T18:31:31.113Z,3.80
2019-02-14T18:33:58.313Z,4.83
2019-02-14T18:36:25.739Z,4.57
2019-02-14T18:38:55.658Z,4.50
2019-02-14T18:41:22.785Z,6.83
2019-02-14T18:43:49.936Z,5.15
2019-02-14T18:46:17.086Z,5.97
2019-02-14T18:48:44.239Z,7.20
2019-02-14T18:51:11.389Z,6.90
2019-02-14T18:53:38.847Z,6.30
2019-02-14T18:56:05.996Z,5.45
2019-02-14T18:58:33.146Z,5.00
2019-02-14T19:01:00.618Z,3.02
2019-02-14T19:03:27.754Z,6.37
2019-02-14T19:05:54.907Z,7.03
2019-02-14T19:08:22.056Z,5.72
2019-02-14T19:10:49.211Z,4.67
2019-02-14T19:13:18.694Z,6.80
2019-02-14T19:15:45.354Z,5.50
2019-02-14T19:18:12.503Z,6.05
2019-02-14T19:20:41.496Z,4.60
2019-02-14T19:23:08.697Z,4.37
2019-02-14T19:25:36.107Z,5.78
2019-02-14T19:28:03.608Z,6.12
2019-02-14T19:30:30.711Z,4.33
2019-02-14T19:32:57.862Z,5.72
2019-02-14T19:35:25.319Z,6.08
2019-02-14T19:37:52.478Z,6.12
2019-02-14T19:40:19.477Z,5.25
2019-02-14T19:42:46.850Z,4.05
2019-02-14T19:45:13.922Z,4.05
2019-02-14T19:47:41.075Z,4.00
2019-02-14T19:50:09.455Z,5.25
2019-02-14T19:52:36.602Z,3.30
2019-02-14T19:55:04.982Z,6.40
2019-02-14T19:57:32.132Z,5.25
2019-02-14T19:59:59.286Z,4.85
2019-02-14T20:02:26.433Z,4.10
2019-02-14T20:04:53.898Z,5.35
2019-02-14T20:07:21.635Z,5.30
2019-02-14T20:09:48.812Z,4.05
2019-02-14T20:12:15.958Z,3.50
2019-02-14T20:14:43.107Z,2.75
2019-02-14T20:17:10.307Z,3.35
2019-02-14T20:19:37.408Z,5.08
2019-02-14T20:22:04.562Z,3.12
2019-02-14T20:24:31.717Z,3.90
2019-02-14T20:26:58.860Z,4.60
2019-02-14T20:29:26.012Z,3.65
2019-02-14T20:31:53.077Z,3.95
2019-02-14T20:34:20.697Z,4.40
2019-02-14T20:36:48.011Z,4.83
2019-02-14T20:39:15.230Z,4.15
2019-02-14T20:41:45.869Z,3.95
2019-02-14T20:44:11.678Z,4.17
2019-02-14T20:46:38.775Z,2.37
2019-02-14T20:49:05.980Z,1.60
2019-02-14T20:51:38.496Z,2.17
2019-02-14T20:54:02.127Z,2.05
2019-02-14T20:56:29.275Z,2.65
2019-02-14T20:58:56.437Z,2.30
2019-02-14T21:01:23.576Z,2.47
2019-02-14T21:03:50.727Z,2.22
2019-02-14T21:06:18.041Z,1.82
2019-02-14T21:08:45.073Z,3.70
2019-02-14T21:11:12.178Z,3.50
2019-02-14T21:13:39.331Z,3.67
2019-02-14T21:16:06.480Z,3.95
2019-02-14T21:18:33.650Z,5.78
2019-02-14T21:21:00.781Z,4.87
2019-02-14T21:23:27.931Z,6.55
2019-02-14T21:25:55.150Z,5.62
2019-02-14T21:28:22.559Z,5.95
2019-02-14T21:30:49.691Z,5.37
2019-02-14T21:33:16.842Z,3.02
2019-02-14T21:35:46.251Z,4.58
2019-02-14T21:38:13.294Z,4.67
2019-02-14T21:40:40.470Z,5.50
2019-02-14T21:43:07.593Z,5.17
2019-02-14T21:45:34.750Z,3.87
2019-02-14T21:48:01.907Z,5.78
2019-02-14T21:50:29.049Z,5.40
2019-02-14T21:52:56.198Z,5.05
2019-02-14T21:55:23.354Z,5.95
2019-02-14T21:57:50.496Z,4.75
2019-02-14T22:00:27.709Z,4.95
2019-02-14T22:02:54.940Z,5.03
2019-02-14T22:05:25.010Z,3.45
2019-02-14T22:07:51.083Z,4.37
2019-02-14T22:10:18.232Z,2.90
2019-02-14T22:12:45.412Z,3.20
2019-02-14T22:15:14.070Z,3.27
2019-02-14T22:17:41.224Z,3.27
2019-02-14T22:20:09.629Z,5.22
2019-02-14T22:22:36.748Z,5.37
2019-02-14T22:25:05.741Z,3.05
2019-02-14T22:27:32.894Z,2.67
2019-02-14T22:30:00.044Z,5.00
2019-02-14T22:32:27.194Z,4.40
2019-02-14T22:34:54.347Z,5.62
2019-02-14T22:37:21.494Z,3.42
2019-02-14T22:39:48.645Z,3.55
2019-02-14T22:42:15.798Z,2.20
2019-02-14T22:44:42.946Z,3.08
2019-02-14T22:47:10.096Z,3.27
2019-02-14T22:49:37.252Z,2.72
2019-02-14T22:52:04.397Z,2.00
2019-02-14T22:54:31.548Z,3.10
2019-02-14T22:56:58.698Z,3.30
2019-02-14T22:59:25.897Z,2.05
2019-02-14T23:01:53.307Z,3.40
2019-02-14T23:04:20.151Z,3.17
2019-02-14T23:06:46.994Z,2.25
2019-02-14T23:09:14.193Z,2.35
2019-02-14T23:11:40.988Z,2.47
2019-02-14T23:14:07.831Z,2.35
2019-02-14T23:16:34.981Z,2.10
2019-02-14T23:19:01.822Z,1.05
2019-02-14T23:21:28.725Z,1.70
2019-02-14T23:23:55.511Z,1.20
2019-02-14T23:26:22.368Z,2.65
2019-02-14T23:28:49.507Z,2.05
2019-02-14T23:31:16.349Z,2.85
2019-02-14T23:33:43.192Z,1.77
2019-02-14T23:36:10.344Z,2.42
2019-02-14T23:38:37.199Z,1.32
2019-02-14T23:41:04.338Z,2.98
2019-02-14T23:43:31.487Z,3.45
2019-02-14T23:45:58.331Z,1.60
2019-02-14T23:48:25.481Z,1.82
2019-02-14T23:50:52.373Z,1.87
2019-02-14T23:53:19.167Z,1.47
2019-02-14T23:55:46.318Z,2.40
2019-02-14T23:58:13.470Z,1.77
